Time;durP1;ratioP1;P1;durP2;ratioP2;P2;SDS_P1;SDS_P2;PMS_P1;PMS_P2;Temp;Humidity;BMP_temperature;BMP_pressure;BME280_temperature;BME280_humidity;BME280_pressure;Samples;Min_cycle;Max_cycle;Signal;HPM_P1;HPM_P2
2022/02/25 00:05:29;;;;;;;25.65;10.05;;;;;;;8.81;74.51;99280.66;713703;1174;115300;-73
2022/02/25 00:20:31;;;;;;;18.93;9.28;;;;;;;8.94;75.26;99269.03;713611;1174;115317;-73
2022/02/25 00:35:33;;;;;;;19.15;8.70;;;;;;;9.22;73.94;99261.90;713585;1174;114633;-73
2022/02/25 00:51:41;;;;;;;14.15;7.65;;;;;;;9.67;72.64;99246.99;713686;1174;115154;-73
2022/02/25 01:06:43;;;;;;;13.23;7.07;;;;;;;9.88;72.41;99258.91;713632;1173;115077;-73
2022/02/25 01:21:46;;;;;;;10.08;6.58;;;;;;;10.03;72.23;99249.49;713388;1174;115156;-73
2022/02/25 01:36:48;;;;;;;12.78;6.58;;;;;;;10.22;71.88;99244.98;713710;1174;113999;-72
2022/02/25 01:51:56;;;;;;;11.78;6.30;;;;;;;10.28;71.79;99250.41;713882;1174;115658;-73
2022/02/25 02:07:00;;;;;;;12.28;6.15;;;;;;;10.39;71.22;99235.41;713028;1174;115282;-73
2022/02/25 02:22:03;;;;;;;10.65;5.85;;;;;;;10.40;71.39;99261.45;713218;1174;115419;-74
2022/02/25 02:37:07;;;;;;;10.58;4.83;;;;;;;10.42;71.20;99284.89;713217;1174;114568;-74
2022/02/25 02:52:09;;;;;;;8.27;3.70;;;;;;;10.04;70.92;99355.11;713316;1174;115033;-75
2022/02/25 03:07:12;;;;;;;2.00;0.83;;;;;;;8.91;70.29;99421.86;713140;1174;114142;-72
2022/02/25 03:22:14;;;;;;;1.65;0.80;;;;;;;7.86;76.87;99485.50;713414;1174;114796;-72
2022/02/25 03:37:17;;;;;;;1.48;1.00;;;;;;;6.90;83.08;99551.99;713214;1174;114449;-72
2022/02/25 03:52:20;;;;;;;1.95;1.15;;;;;;;6.81;82.91;99556.19;713238;1174;115011;-72
2022/02/25 04:07:22;;;;;;;3.15;1.50;;;;;;;6.77;82.61;99582.63;713461;1173;114349;-73
2022/02/25 04:22:25;;;;;;;4.77;2.20;;;;;;;6.61;83.52;99598.72;713885;1174;114131;-72
2022/02/25 04:37:28;;;;;;;6.70;2.83;;;;;;;6.57;83.15;99611.20;713888;1173;115021;-72
2022/02/25 04:52:30;;;;;;;4.73;1.75;;;;;;;6.41;82.15;99652.47;714282;1174;115230;-75
2022/02/25 05:07:33;;;;;;;3.10;1.85;;;;;;;6.22;81.95;99679.17;713394;1173;114974;-72
2022/02/25 05:22:35;;;;;;;3.95;1.95;;;;;;;5.93;82.29;99721.31;713782;1174;114127;-72
2022/02/25 05:37:38;;;;;;;3.93;2.03;;;;;;;5.99;81.64;99778.14;714131;1174;115102;-72
2022/02/25 05:52:42;;;;;;;8.85;3.33;;;;;;;6.06;79.61;99815.80;713748;1174;113908;-72
2022/02/25 06:07:49;;;;;;;10.30;4.50;;;;;;;5.94;78.50;99843.56;713075;1174;115880;-73
2022/02/25 06:22:51;;;;;;;36.33;15.98;;;;;;;5.72;77.90;99864.35;713644;1174;114593;-73
2022/02/25 06:37:53;;;;;;;106.83;44.90;;;;;;;5.70;77.68;99893.10;714207;1174;114826;-72
2022/02/25 06:52:55;;;;;;;27.38;12.05;;;;;;;5.66;77.71;99912.46;713558;1174;114453;-76
2022/02/25 07:07:57;;;;;;;20.03;8.93;;;;;;;6.38;76.71;99941.93;714329;1174;114071;-82
2022/02/25 07:23:04;;;;;;;11.10;6.20;;;;;;;7.05;74.29;99961.95;713739;1174;115204;-79
2022/02/25 07:38:06;;;;;;;10.90;3.90;;;;;;;7.05;73.13;99975.00;715493;1174;114447;-77
2022/02/25 07:53:08;;;;;;;8.10;3.90;;;;;;;7.50;70.36;100006.23;716049;1174;114759;-77
2022/02/25 08:08:11;;;;;;;12.70;5.93;;;;;;;7.91;69.77;100021.32;716882;1173;114259;-76
2022/02/25 08:23:14;;;;;;;51.53;13.90;;;;;;;8.03;67.82;100043.01;715392;1174;113955;-77
2022/02/25 08:38:17;;;;;;;35.85;9.08;;;;;;;7.86;66.17;100071.30;716163;1174;115008;-76
2022/02/25 08:53:20;;;;;;;25.50;8.95;;;;;;;8.37;65.50;100084.66;718532;1174;113851;-79
2022/02/25 09:08:22;;;;;;;16.20;7.50;;;;;;;7.37;66.42;100099.50;715541;1174;114746;-79
2022/02/25 09:23:24;;;;;;;24.58;8.53;;;;;;;7.14;67.05;100115.16;716126;1174;114493;-78
2022/02/25 09:38:26;;;;;;;54.90;19.70;;;;;;;7.15;66.66;100155.95;727481;1174;114194;-79
2022/02/25 09:53:29;;;;;;;41.00;18.90;;;;;;;7.16;66.97;100165.42;717437;1174;114815;-79
2022/02/25 10:08:31;;;;;;;39.30;13.40;;;;;;;7.67;67.97;100168.56;719412;1174;114847;-79
2022/02/25 10:23:39;;;;;;;27.88;9.83;;;;;;;7.32;64.79;100185.14;719057;1174;114785;-78
2022/02/25 10:38:42;;;;;;;29.43;8.50;;;;;;;8.17;65.36;100191.66;716126;1174;114312;-79
2022/02/25 10:53:50;;;;;;;72.73;23.02;;;;;;;9.57;64.24;100217.81;716203;1174;115462;-75
2022/02/25 11:08:53;;;;;;;14.07;6.90;;;;;;;8.63;62.54;100215.91;714263;1174;114812;-75
2022/02/25 11:23:59;;;;;;;18.28;5.53;;;;;;;8.95;63.11;100238.63;714609;1174;114328;-74
2022/02/25 11:39:18;;;;;;;8.87;5.07;;;;;;;8.59;59.94;100232.80;715673;1174;113899;-75
2022/02/25 11:54:21;;;;;;;18.68;7.00;;;;;;;8.24;61.10;100241.66;714267;1173;113800;-75
2022/02/25 12:09:45;;;;;;;15.80;5.20;;;;;;;8.57;59.85;100255.64;715493;1174;114406;-75
2022/02/25 12:24:54;;;;;;;22.30;9.03;;;;;;;8.27;60.19;100270.15;714605;1174;115133;-76
2022/02/25 12:40:04;;;;;;;22.55;9.20;;;;;;;8.02;61.15;100277.28;713499;1174;114734;-74
2022/02/25 12:55:07;;;;;;;26.75;13.73;;;;;;;8.23;61.00;100281.80;713115;1174;114627;-75
2022/02/25 13:10:10;;;;;;;18.90;6.43;;;;;;;8.14;61.11;100292.03;713345;1173;114956;-78
2022/02/25 13:25:21;;;;;;;16.10;4.75;;;;;;;8.01;61.06;100296.55;714136;1173;114147;-78
2022/02/25 13:40:41;;;;;;;8.23;3.80;;;;;;;8.04;61.49;100314.59;714195;1174;114108;-79
2022/02/25 13:56:05;;;;;;;16.65;5.45;;;;;;;8.09;61.55;100302.00;714165;1174;113848;-79
2022/02/25 14:11:08;;;;;;;15.50;6.18;;;;;;;8.00;62.17;100313.16;714302;1174;114047;-84
2022/02/25 14:26:13;;;;;;;11.60;5.13;;;;;;;8.04;62.88;100308.51;714601;1174;114094;-84
2022/02/25 14:41:17;;;;;;;14.68;6.03;;;;;;;8.12;63.14;100322.66;714805;1173;114792;-85
2022/02/25 14:56:20;;;;;;;68.90;40.60;;;;;;;8.15;63.70;100332.86;715071;1174;113899;-85
2022/02/25 15:11:23;;;;;;;23.10;12.20;;;;;;;8.22;64.16;100335.02;714561;1174;115082;-84
2022/02/25 15:26:26;;;;;;;14.93;6.67;;;;;;;8.11;64.60;100347.12;716925;1174;118481;-84
2022/02/25 15:41:29;;;;;;;22.20;7.98;;;;;;;8.19;63.67;100369.23;715295;1174;114811;-81
2022/02/25 15:56:31;;;;;;;20.70;6.80;;;;;;;8.11;63.47;100391.54;715063;1174;113830;-80
2022/02/25 16:11:33;;;;;;;115.10;30.00;;;;;;;8.04;64.73;100410.41;715968;1173;114231;-81
2022/02/25 16:26:35;;;;;;;20.00;8.43;;;;;;;8.00;64.36;100436.77;714467;1174;115434;-81
2022/02/25 16:41:38;;;;;;;15.63;7.45;;;;;;;7.95;63.31;100459.80;714664;1174;114379;-83
2022/02/25 16:56:41;;;;;;;16.43;7.87;;;;;;;7.88;62.68;100473.41;716869;1174;115082;-79
2022/02/25 17:11:45;;;;;;;50.33;19.85;;;;;;;7.86;62.13;100483.16;716614;1174;113994;-83
2022/02/25 17:26:47;;;;;;;22.23;9.87;;;;;;;7.85;62.37;100510.22;715272;1173;115812;-76
2022/02/25 17:41:50;;;;;;;30.03;10.78;;;;;;;7.80;62.04;100524.45;714472;1174;114534;-76
2022/02/25 17:56:52;;;;;;;18.98;7.15;;;;;;;7.76;61.69;100537.83;714140;1173;115027;-76
2022/02/25 18:11:55;;;;;;;21.77;6.93;;;;;;;7.59;62.55;100549.52;714277;1174;114770;-76
2022/02/25 18:26:57;;;;;;;51.93;20.10;;;;;;;7.43;63.51;100563.64;714518;1174;115452;-76
2022/02/25 18:42:01;;;;;;;41.50;14.45;;;;;;;7.33;63.15;100581.70;715627;1174;114138;-79
2022/02/25 18:57:07;;;;;;;36.08;12.95;;;;;;;7.21;63.30;100594.80;716383;1174;116029;-83
2022/02/25 19:12:10;;;;;;;22.48;9.38;;;;;;;7.11;63.76;100605.86;717571;1174;118745;-85
2022/02/25 19:27:13;;;;;;;19.83;8.00;;;;;;;7.03;63.79;100615.97;714500;1174;116057;-77
2022/02/25 19:42:21;;;;;;;35.33;13.63;;;;;;;7.00;64.54;100634.44;714148;1173;113877;-78
2022/02/25 19:57:26;;;;;;;30.35;12.25;;;;;;;6.91;64.78;100642.89;714373;1173;114702;-78
2022/02/25 20:12:32;;;;;;;14.33;6.73;;;;;;;6.95;64.60;100636.52;714408;1174;114319;-76
2022/02/25 20:27:35;;;;;;;25.58;9.13;;;;;;;6.81;65.55;100651.33;714737;1174;113865;-78
2022/02/25 20:42:37;;;;;;;22.65;10.00;;;;;;;6.70;66.05;100659.02;714170;1174;115371;-78
2022/02/25 20:57:39;;;;;;;36.60;15.18;;;;;;;6.72;66.07;100680.63;713868;1174;115388;-76
2022/02/25 21:12:42;;;;;;;36.20;15.10;;;;;;;6.72;66.62;100704.09;715070;1174;116032;-77
2022/02/25 21:27:46;;;;;;;23.05;8.80;;;;;;;6.64;66.95;100719.40;716777;1174;115408;-81
2022/02/25 21:42:50;;;;;;;33.33;13.20;;;;;;;6.68;67.22;100723.48;717610;1174;113961;-82
2022/02/25 21:57:52;;;;;;;24.48;8.83;;;;;;;6.59;67.48;100732.72;718521;1174;115610;-82
2022/02/25 22:12:54;;;;;;;21.38;8.65;;;;;;;6.41;68.26;100757.34;716567;1174;114750;-83
2022/02/25 22:27:57;;;;;;;17.58;6.88;;;;;;;6.17;68.97;100784.00;716099;1174;113845;-81
2022/02/25 22:42:59;;;;;;;29.10;10.58;;;;;;;6.09;69.13;100791.45;717260;1174;114291;-83
2022/02/25 23:13:22;;;;;;;17.13;6.70;;;;;;;5.39;70.60;100795.53;713921;1174;113995;-83
2022/02/25 23:28:24;;;;;;;22.85;11.10;;;;;;;5.23;70.60;100816.40;713758;1174;113962;-84
2022/02/25 23:43:26;;;;;;;20.67;9.57;;;;;;;5.03;71.31;100829.68;714136;1173;114965;-84
2022/02/25 23:58:29;;;;;;;26.13;9.83;;;;;;;4.71;71.95;100845.30;714097;1174;115344;-82
